Terminal Aerodrome Forecast
Issued by NWS

Home | Current Version | Previous Version | Graphics & Text | Print | Product List | Glossary On
Versions: 1 2 3 4 5 6 7 8 9 10 11 12 13 14 15 16 17 18 19 20 21 22
000
FTUS43 KBIS 181100
TAFJMS
TAF
KJMS 181132Z 1812/1912 13006KT P6SM OVC080
     FM181600 16008KT P6SM OVC012
     FM182000 17007KT P6SM -SN OVC010
     FM190000 16006KT P6SM OVC015=

USA.gov is the U.S. government's official web portal to all federal, state and local government web resources and services.